HOURLY OBS INDEX

033

Central Coast - east

ALVA BEACH

Site: 033295
Alt: 7.5m
74km ESE of TOWNSVILLE


  Time     Wind        Temp  DP   Baro     Rain since   Rain past  Vis(m), Cloud(base in m), Weather
  local        km/h                         9am  last   hr   10m    
Thu 09:00    S 13/ 22  17.4  8.8  1022.1    0.0   0.0   0.0   0.0   ----- 
Thu 09:30    S  9/ 17  19.3  8.9  1022.0    0.0   0.0   0.0   0.0   ----- 
Thu 10:00   SE 11/ 20  21.3  9.2  1021.9    0.0   0.0   0.0   0.0   ----- 
Thu 10:30   SE 13/ 24  21.8  9.0  1021.8    0.0   0.0   0.0   0.0   ----- 
Thu 11:00   SE 17/ 24  21.5  9.7  1021.5    0.0   0.0   0.0   0.0   ----- 
Thu 11:30   SE 15/ 28  22.2 10.4  1021.3    0.0   0.0   0.0   0.0   ----- 
Thu 12:00  ESE 17/ 28  22.4 11.2  1020.9    0.0   0.0   0.0   0.0   ----- 
Thu 12:30  ESE 17/ 26  22.6 11.4  1020.5    0.0   0.0   0.0   0.0   ----- 
Thu 13:00  ESE 17/ 24  22.8 11.5  1020.0    0.0   0.0   0.0   0.0   ----- 
Thu 13:30    E 17/ 24  23.6 11.0  1019.6    0.0   0.0   0.0   0.0   ----- 
Thu 14:00  ESE 15/ 24  23.0 11.4  1019.2    0.0   0.0   0.0   0.0   ----- 

AYR DPI RESEARCH STN

Site: 033002
Alt: 17.0m
71km SE of TOWNSVILLE


  Time     Wind        Temp  DP   Baro     Rain since   Rain past  Vis(m), Cloud(base in m), Weather
  local        km/h                         9am  last   hr   10m    
Thu 09:00    S  9/ 13  16.6  9.3  ------    0.0   0.0   0.0   0.0   ----- 
Thu 09:30  SSE 13/ 19  18.7  8.7  ------    0.0   0.0   0.0   0.0   ----- 
Thu 10:00   SE 15/ 24  20.4  8.4  ------    0.0   0.0   0.0   0.0   ----- 
Thu 10:30  ESE 15/ 26  21.6  8.8  ------    0.0   0.0   0.0   0.0   ----- 
Thu 11:00    E 17/ 24  22.5  9.6  ------    0.0   0.0   0.0   0.0   ----- 
Thu 11:30    E 19/ 30  22.7  9.8  ------    0.0   0.0   0.0   0.0   ----- 
Thu 12:00    E 19/ 30  22.8  9.2  ------    0.0   0.0   0.0   0.0   ----- 
Thu 12:30  ESE 15/ 24  22.7  9.8  ------    0.0   0.0   0.0   0.0   ----- 
Thu 13:00  ESE 19/ 28  23.2  9.6  ------    0.0   0.0   0.0   0.0   ----- 
Thu 13:30  ENE 17/ 26  23.3  9.3  ------    0.0   0.0   0.0   0.0   ----- 
Thu 14:00    E 15/ 26  23.5  9.1  ------    0.0   0.0   0.0   0.0   ----- 

BOWEN AIRPORT AWS

Site: 033327
Alt: 5.9m
km of


  Time     Wind        Temp  DP   Baro     Rain since   Rain past  Vis(m), Cloud(base in m), Weather
  local        km/h                         9am  last   hr   10m    
Thu 09:00  SSE 11/ 19  19.1  9.9  1022.2    0.0   0.0   0.0   0.0   ----- 
Thu 09:30   SE 15/ 22  20.7 10.2  1022.1    0.0   0.0   0.0   0.0   ----- 
Thu 10:00  ESE 19/ 26  20.5 10.0  1021.9    0.0   0.0   0.0   0.0   ----- 
Thu 10:30  ESE 19/ 28  21.3 10.5  1021.7    0.0   0.0   0.0   0.0   ----- 
Thu 11:00  ESE 19/ 24  21.8 10.9  1021.5    0.0   0.0   0.0   0.0   ----- 
Thu 11:30  ESE 15/ 17  22.0 10.8  1021.3    0.0   0.0   0.0   0.0   ----- 
Thu 12:00  ESE 13/ 17  22.2 10.4  1021.0    0.0   0.0   0.0   0.0   ----- 
Thu 12:30  ESE 15/ 22  22.5 10.9  1020.6    0.0   0.0   0.0   0.0   ----- 
Thu 13:00  ESE 15/ 22  23.0 12.0  1020.0    0.0   0.0   0.0   0.0   ----- 
Thu 13:30    E 17/ 24  23.3 11.0  1019.5    0.0   0.0   0.0   0.0   ----- 
Thu 14:00    E 24/ 30  23.3 10.0  1019.2    0.0   0.0   0.0   0.0   ----- 

HAMILTON ISLAND AIRPORT

Site: 033106
Alt: 58.7m
83km ESE of BOWEN


  Time     Wind        Temp  DP   Baro     Rain since   Rain past  Vis(m), Cloud(base in m), Weather
  local        km/h                         9am  last   hr   10m    
Thu 09:00  SSE 32/ 35  19.8 13.5  1022.5    0.0   0.0   0.0   0.0   10000 
Thu 09:30  SSE 32/ 35  20.2 13.9  1022.4    0.0   0.0   0.0   0.0   10000 
Thu 10:00  SSE 33/ 39  19.9 13.8  1022.4    0.0   0.0   0.0   0.0   10000 
Thu 10:30  SSE 32/ 39  19.7 13.6  1022.3    0.0   0.0   0.0   0.0   10000 
Thu 11:00  SSE 30/ 35  19.8 14.2  1022.0    0.0   0.0   0.0   0.0   10000 
Thu 11:30  SSE 32/ 37  20.0 14.6  1021.8    0.0   0.0   0.0   0.0   10000 
Thu 12:00  SSE 32/ 39  19.9 14.5  1021.4    0.0   0.0   0.0   0.0   10000 
Thu 12:30  SSE 28/ 35  20.3 15.1  1021.0    0.0   0.0   0.0   0.0   10000 
Thu 13:00  SSE 28/ 35  20.1 15.1  1020.7    0.0   0.0   0.0   0.0   10000|SC 810 
Thu 13:30  SSE 28/ 33  19.7 14.9  1020.4    0.0   0.0   0.0   0.0   10000|BR 690 OC 810 
Thu 14:00  SSE 30/ 35  19.6 15.3  1020.2    0.0   0.0   0.0   0.0   10000|SC 690 SC 810 BR 930 

HAY POINT

Site: 033317
Alt: 7.0m
20km SE of MACKAY


  Time     Wind        Temp  DP   Baro     Rain since   Rain past  Vis(m), Cloud(base in m), Weather
  local        km/h                         9am  last   hr   10m    
Thu 09:00    S 19/ 26 --------  ------   ----  ----  ----  ----   ----- 
Thu 09:30    S 19/ 28 --------  ------   ----  ----  ----  ----   ----- 
Thu 10:00  SSE 20/ 30 --------  ------   ----  ----  ----  ----   ----- 
Thu 10:30  SSE 24/ 28 --------  ------   ----  ----  ----  ----   ----- 
Thu 11:00  SSE 33/ 39 --------  ------   ----  ----  ----  ----   ----- 
Thu 11:30  SSE 32/ 37 --------  ------   ----  ----  ----  ----   ----- 
Thu 12:00  SSE 28/ 32 --------  ------   ----  ----  ----  ----   ----- 
Thu 12:30  SSE 28/ 33 --------  ------   ----  ----  ----  ----   ----- 
Thu 13:00  SSE 28/ 35 --------  ------   ----  ----  ----  ----   ----- 
Thu 13:30  SSE 26/ 32 --------  ------   ----  ----  ----  ----   ----- 
Thu 14:00  SSE 24/ 30 --------  ------   ----  ----  ----  ----   ----- 

MACKAY AERO

Site: 033045
Alt: 4.7m
3km S of MACKAY


  Time     Wind        Temp  DP   Baro     Rain since   Rain past  Vis(m), Cloud(base in m), Weather
  local        km/h                         9am  last   hr   10m    
Thu 09:00  WSW  9/ 13  16.3 10.6  1022.7    0.0   0.0   0.0   0.0   10000 
Thu 09:30  SSW  9/ 15  19.0 11.3  1022.6    0.0   0.0   0.0   0.0   10000 
Thu 10:00    S 11/ 15  20.5 11.7  1022.3    0.0   0.0   0.0   0.0   10000 
Thu 10:30   SE 17/ 20  21.1 12.0  1022.2    0.0   0.0   0.0   0.0   10000 
Thu 11:00   SE 20/ 30  21.7 13.9  1021.8    0.0   0.0   0.0   0.0   10000 
Thu 11:30   SE 28/ 33  22.0 14.4  1021.6    0.0   0.0   0.0   0.0   10000 
Thu 12:00  ESE 26/ 33  22.0 14.4  1021.4    0.0   0.0   0.0   0.0   10000 
Thu 12:30  ESE 26/ 32  22.2 15.3  1021.1    0.0   0.0   0.0   0.0   10000 
Thu 13:00  ESE 28/ 33  21.8 14.7  1020.5    0.0   0.0   0.0   0.0   10000 
Thu 13:30   SE 28/ 32  21.4 14.6  1020.3    0.0   0.0   0.0   0.0   10000|BR1350 
Thu 14:00  ESE 26/ 32  21.7 14.4  1020.0    0.0   0.0   0.0   0.0   10000|SC1470 

MACKAY M.O

Site: 033119
Alt: 30.3m
5km NE of MACKAY


  Time     Wind        Temp  DP   Baro     Rain since   Rain past  Vis(m), Cloud(base in m), Weather
  local        km/h                         9am  last   hr   10m    
Thu 09:00  SSW 13/ 19  16.8 10.9  1022.7    0.0   0.0   0.0   0.0   ----- 
Thu 09:30    S 15/ 20  18.2 11.0  1022.6    0.0   0.0   0.0   0.0   ----- 
Thu 10:00    S 15/ 24  19.3 11.8  1022.4    0.0   0.0   0.0   0.0   ----- 
Thu 10:30  SSE 15/ 24  19.6 12.6  1022.2    0.0   0.0   0.0   0.0   ----- 
Thu 11:00    S 15/ 24  20.4 13.8  1022.0    0.0   0.0   0.0   0.0   ----- 
Thu 11:30  SSE 19/ 30  21.0 15.1  1021.8    0.0   0.0   0.0   0.0   ----- 
Thu 12:00  SSE 19/ 26  20.9 14.8  1021.6    0.0   0.0   0.0   0.0   ----- 
Thu 12:30  SSE 17/ 28  20.7 14.6  1021.2    0.0   0.0   0.0   0.0   ----- 
Thu 13:00  SSE 19/ 30  20.7 15.0  1020.6    0.0   0.0   0.0   0.0   ----- 
Thu 13:30  SSE 19/ 28  20.5 14.8  1020.4    0.0   0.0   0.0   0.0   -----|BR1350 BR1530 
Thu 14:00  SSE 17/ 28  20.9 15.4  1020.1    0.0   0.0   0.0   0.0   -----|SC1350 BR1530 

OORALEA RACECOURSE (MACKAY TURF CLUB)

Site: 033329
Alt: 10.3m
km of


  Time     Wind        Temp  DP   Baro     Rain since   Rain past  Vis(m), Cloud(base in m), Weather
  local        km/h                         9am  last   hr   10m    
Thu 09:00    W  6/  7  16.0 10.7  ------    0.0   0.0   0.0   0.0   ----- 
Thu 09:30    W  6/ 11  18.3 11.1  ------    0.0   0.0   0.0   0.0   ----- 
Thu 10:00  SSE  9/ 15  20.1 11.8  ------    0.0   0.0   0.0   0.0   ----- 
Thu 10:30   SE 11/ 20  21.1 12.3  ------    0.0   0.0   0.0   0.0   ----- 
Thu 11:00  ESE 11/ 19  21.5 12.6  ------    0.0   0.0   0.0   0.0   ----- 
Thu 11:30  ESE 17/ 24  21.9 13.8  ------    0.0   0.0   0.0   0.0   ----- 
Thu 12:00  ESE 15/ 20  22.1 14.0  ------    0.0   0.0   0.0   0.0   ----- 
Thu 12:30    E 17/ 24  22.0 14.1  ------    0.0   0.0   0.0   0.0   ----- 
Thu 13:00    E 17/ 24  21.9 14.8  ------    0.0   0.0   0.0   0.0   ----- 
Thu 13:30  ESE 19/ 26  22.1 15.0  ------    0.0   0.0   0.0   0.0   ----- 
Thu 14:00  ESE 17/ 24  21.9 15.3  ------    0.0   0.0   0.0   0.0   ----- 

PROSERPINE AIRPORT

Site: 033247
Alt: 19.7m
62km SSE of BOWEN


  Time     Wind        Temp  DP   Baro     Rain since   Rain past  Vis(m), Cloud(base in m), Weather
  local        km/h                         9am  last   hr   10m    
Thu 09:00    C  0/  6  16.9 11.2  1022.8    0.0   0.0   0.0   0.0   10000|SC1410 
Thu 09:30    S  6/ 11  19.3 11.1  1022.7    0.0   0.0   0.0   0.0   10000 
Thu 10:00    E 11/ 17  21.2 11.0  1022.5    0.0   0.0   0.0   0.0   10000 
Thu 10:30  ESE 15/ 24  21.8 11.2  1022.3    0.0   0.0   0.0   0.0   10000 
Thu 11:00  ESE 20/ 28  22.8 11.2  1021.9    0.0   0.0   0.0   0.0   10000 
Thu 11:30    E 19/ 26  22.6 11.4  1021.6    0.0   0.0   0.0   0.0   10000 
Thu 12:00  ESE 19/ 28  23.0 12.0  1021.5    0.0   0.0   0.0   0.0   10000 
Thu 12:30    E 20/ 33  22.8 12.7  1021.1    0.0   0.0   0.0   0.0   10000|SC1230 
Thu 13:00   SE 15/ 24  22.8 12.4  1020.7    0.0   0.0   0.0   0.0   10000|BR1170 
Thu 13:30  ESE 15/ 24  22.9 12.2  1020.2    0.0   0.0   0.0   0.0   10000|BR1170 BR1380 
Thu 14:00  ESE 15/ 22  22.1 12.6  1020.0    0.0   0.0   0.0   0.0   10000|BR1170 BR1380 

ROSSLYN BAY NTC AWS

Site: 033208
Alt: 0.0m
37km NE of ROCKHAMPTON


  Time     Wind        Temp  DP   Baro     Rain since   Rain past  Vis(m), Cloud(base in m), Weather
  local        km/h                         9am  last   hr   10m    
Thu 09:00    S 11/ 24  17.5----  1023.3   ----  ----  ----  ----   ----- 
Thu 09:30    S  9/ 28  17.6----  1023.4   ----  ----  ----  ----   ----- 
Thu 10:00    S  9/ 20  17.4----  1023.2   ----  ----  ----  ----   ----- 
Thu 10:30    S  9/ 19  18.0----  1023.0   ----  ----  ----  ----   ----- 
Thu 11:00    S 13/ 22  18.3----  1022.8   ----  ----  ----  ----   ----- 
Thu 11:30    S 13/ 26  18.4----  1022.5   ----  ----  ----  ----   ----- 
Thu 12:00    S 11/ 20  19.0----  1022.2   ----  ----  ----  ----   ----- 
Thu 12:30    S 17/ 28  19.1----  1021.7   ----  ----  ----  ----   ----- 
Thu 13:00    S 17/ 26  19.2----  1021.2   ----  ----  ----  ----   ----- 
Thu 13:30    S 17/ 28  19.5----  1020.9   ----  ----  ----  ----   ----- 
Thu 14:00    S 19/ 28  19.7----  1020.8   ----  ----  ----  ----   ----- 

SAMUEL HILL AERO

Site: 033308
Alt: 31.0m
71km NNE of ROCKHAMPTON


  Time     Wind        Temp  DP   Baro     Rain since   Rain past  Vis(m), Cloud(base in m), Weather
  local        km/h                         9am  last   hr   10m    
Thu 09:00  SSE  9/ 15  17.1 11.2  1023.3    0.0   0.0   0.0   0.0   10000|BR1110 BR1350 OC1500 
Thu 09:30  SSE 17/ 24  18.0 10.9  1023.3    0.0   0.0   0.0   0.0   10000|SC1110 BR1380 BR1560 
Thu 10:00  SSE 20/ 30  19.1 11.2  1023.1    0.0   0.0   0.0   0.0   10000|SC1380 SC1680 BR2070 
Thu 10:30  SSE 17/ 24  19.2 11.5  1023.0    0.0   0.0   0.0   0.0   10000|SC 870 SC1110 SC1290 
Thu 11:00  SSE 19/ 30  18.8 11.4  1022.7    0.0   0.0   0.0   0.0   10000|SC1050 BR1230 OC1410 
Thu 11:30  SSE 19/ 26  18.7 11.8  1022.6    0.0   0.0   0.0   0.0   10000|OC 930 
Thu 12:00   SE 20/ 33  19.5 13.0  1022.2    0.0   0.0   0.0   0.0   10000|BR1050 BR1260 OC1470 
Thu 12:30  SSE 20/ 32  19.3 13.3  1021.7    0.0   0.0   0.0   0.0   10000|SC 570 SC1140 BR1470 
Thu 13:00   SE 19/ 32  20.2 14.1  1021.3    0.0   0.0   0.0   0.0   10000|SC1200 BR1560 
Thu 13:30   SE 17/ 28  20.0 13.9  1021.0    0.0   0.0   0.0   0.0   10000|BR 630 BR1200 
Thu 14:00  SSE 19/ 28  19.8 14.2  1020.8    0.0   0.0   0.0   0.0   10000|BR 630 BR 780 OC1050 

ST LAWRENCE

Site: 033210
Alt: 9.2m
138km SSE of MACKAY


  Time     Wind        Temp  DP   Baro     Rain since   Rain past  Vis(m), Cloud(base in m), Weather
  local        km/h                         9am  last   hr   10m    
Thu 09:00    S  9/ 15  17.6  7.9  1023.3    0.0   0.0   0.0   0.0   ----- 
Thu 09:30    S  9/ 13  19.3  7.7  1023.4    0.0   0.0   0.0   0.0   ----- 
Thu 10:00  SSE 13/ 20  20.6  8.3  1023.1    0.0   0.0   0.0   0.0   ----- 
Thu 10:30  ESE 13/ 22  21.2  8.5  1022.7    0.0   0.0   0.0   0.0   ----- 
Thu 11:00  ESE  9/ 20  22.3  8.8  1022.3    0.0   0.0   0.0   0.0   ----- 
Thu 11:30  ESE 11/ 22  23.6  9.9  1022.0    0.0   0.0   0.0   0.0   ----- 
Thu 12:00  ESE  9/ 17  22.8  9.6  1021.6    0.0   0.0   0.0   0.0   ----- 
Thu 12:30   SE 11/ 17  23.6 10.3  1021.0    0.0   0.0   0.0   0.0   ----- 
Thu 13:00    E 13/ 19  23.2 10.3  1020.6    0.0   0.0   0.0   0.0   ----- 
Thu 13:30  ESE 13/ 19  22.8 11.2  1020.3    0.0   0.0   0.0   0.0   ----- 
Thu 14:00  ESE 11/ 20  23.0 11.4  1020.0    0.0   0.0   0.0   0.0   ----- 

TOWNSVILLE-FANNING RIVER (DEFENCE)

Site: 033328
Alt: 329.0m
67km NNE of TOWNSVILLE


  Time     Wind        Temp  DP   Baro     Rain since   Rain past  Vis(m), Cloud(base in m), Weather
  local        km/h                         9am  last   hr   10m    
Thu 09:00  ENE  4/  7  15.9  8.2  1023.0    0.0   0.0   0.0   0.0   ----- 
Thu 09:30    E  7/ 13  17.2  8.4  1023.0    0.0   0.0   0.0   0.0   ----- 
Thu 10:00  ESE  7/ 13  18.0  8.0  1022.9    0.0   0.0   0.0   0.0   ----- 
Thu 10:30    E 11/ 20  19.7  7.1  1022.6    0.0   0.0   0.0   0.0   ----- 
Thu 11:00  ENE 13/ 22  19.9  7.3  1022.5    0.0   0.0   0.0   0.0   ----- 
Thu 11:30    E 11/ 20  20.0  6.0  1022.1    0.0   0.0   0.0   0.0   ----- 
Thu 12:00    E 11/ 20  20.9  5.7  1021.7    0.0   0.0   0.0   0.0   ----- 
Thu 12:30    E 13/ 22  21.1  5.9  1021.2    0.0   0.0   0.0   0.0   ----- 
Thu 13:00    E 11/ 19  21.2  7.4  1020.6    0.0   0.0   0.0   0.0   ----- 
Thu 13:30   NE  9/ 17  22.2  7.2  1020.0    0.0   0.0   0.0   0.0   ----- 
Thu 14:00    E  7/ 17  22.6  7.2  1019.6    0.0   0.0   0.0   0.0   ----- 

WILLIAMSON

Site: 033195
Alt: 27.6m
105km NNW of ROCKHAMPTON


  Time     Wind        Temp  DP   Baro     Rain since   Rain past  Vis(m), Cloud(base in m), Weather
  local        km/h                         9am  last   hr   10m    
Thu 09:00  NNE  4/  9  19.1  9.6  1022.9    0.0   0.0   0.0   0.0   ----- 
Thu 09:30   SE 15/ 22  20.2 10.0  1023.0    0.0   0.0   0.0   0.0   ----- 
Thu 10:00  SSE 17/ 24  21.1 10.6  1022.9    0.0   0.0   0.0   0.0   ----- 
Thu 10:30  SSE 17/ 24  21.1 10.9  1022.6    0.0   0.0   0.0   0.0   ----- 
Thu 11:00  SSE 13/ 20  21.3 11.3  1022.2    0.0   0.0   0.0   0.0   ----- 
Thu 11:30  SSE 11/ 20  21.5 11.8  1022.0    0.0   0.0   0.0   0.0   ----- 
Thu 12:00   SE 13/ 20  21.4 11.7  1021.8    0.0   0.0   0.0   0.0   ----- 
Thu 12:30  ESE 11/ 19  21.8 12.4  1021.4    0.0   0.0   0.0   0.0   ----- 
Thu 13:00   SE 15/ 22  22.1 12.6  1020.9    0.0   0.0   0.0   0.0   ----- 
Thu 13:30    E 15/ 24  22.0 12.8  1020.6    0.0   0.0   0.0   0.0   ----- 
Thu 14:00    E 13/ 20  22.1 12.6  1020.3    0.0   0.0   0.0   0.0   ----- 

WOOLSHED

Site: 033307
Alt: 556.0m
34km WSW of TOWNSVILLE


  Time     Wind        Temp  DP   Baro     Rain since   Rain past  Vis(m), Cloud(base in m), Weather
  local        km/h                         9am  last   hr   10m    
Thu 09:00   SE  7/ 13  15.6  9.3  1022.9    0.0   0.0   0.0   0.0   ----- 
Thu 09:30   SE  7/ 13  15.9  8.2  1023.0    0.0   0.0   0.0   0.0   ----- 
Thu 10:00   SE  6/ 11  17.1  7.5  1023.0    0.0   0.0   0.0   0.0   ----- 
Thu 10:30  ESE  7/ 13  17.5  6.4  1023.0    0.0   0.0   0.0   0.0   ----- 
Thu 11:00    E  7/ 15  17.7  6.9  1022.7    0.0   0.0   0.0   0.0   ----- 
Thu 11:30  ESE  7/ 15  18.5  6.7  1022.5    0.0   0.0   0.0   0.0   ----- 
Thu 12:00  ENE  7/ 13  18.5  6.7  1022.3    0.0   0.0   0.0   0.0   ----- 
Thu 12:30   NE  6/ 13  18.5  6.7  1021.7    0.0   0.0   0.0   0.0   ----- 
Thu 13:00   NE  7/ 17  19.7  7.8  1021.2    0.0   0.0   0.0   0.0   ----- 
Thu 13:30   NE  9/ 15  19.8  7.2  1020.7    0.0   0.0   0.0   0.0   ----- 
Thu 14:00  NNE  7/ 17  20.2  7.9  1020.4    0.0   0.0   0.0   0.0   ----- 

YEPPOON THE ESPLANADE

Site: 033294
Alt: 5.5m
36km NE of ROCKHAMPTON


  Time     Wind        Temp  DP   Baro     Rain since   Rain past  Vis(m), Cloud(base in m), Weather
  local        km/h                         9am  last   hr   10m    
Thu 09:00  SSE 20/ 28  17.9  8.7  1023.6    0.0   0.0   0.0   0.0   ----- 
Thu 09:30  SSE 17/ 26  18.2  9.0  1023.8    0.0   0.0   0.0   0.0   ----- 
Thu 10:00  SSE 20/ 30  18.3  9.4  1023.6    0.0   0.0   0.0   0.0   ----- 
Thu 10:30  SSE 19/ 26  18.7 10.0  1023.4    0.0   0.0   0.0   0.0   ----- 
Thu 11:00   SE 19/ 26  19.6 10.6  1023.1    0.0   0.0   0.0   0.0   ----- 
Thu 11:30   SE 17/ 24  19.9 11.4  1022.9    0.0   0.0   0.0   0.0   ----- 
Thu 12:00   SE 19/ 26  19.6 12.6  1022.6    0.0   0.0   0.0   0.0   ----- 
Thu 12:30  ESE 19/ 28  19.8 13.3  1022.2    0.0   0.0   0.0   0.0   ----- 
Thu 13:00  ESE 19/ 26  20.0 13.5  1021.6    0.0   0.0   0.0   0.0   ----- 
Thu 13:30  ESE 19/ 26  19.9 14.0  1021.4    0.0   0.0   0.0   0.0   ----- 
Thu 14:00  ESE 17/ 26  20.4 14.3  1021.2    0.0   0.0   0.0   0.0   -----